Sheng Jia 1 — XUGG7 — position and weather

sailwx.info

Track history (hours):
 
Tides and Currents Weather Stations Pressure Air Temp Water Temp Dewpoint Dewpoint Depression Visibility Wind Speed Wind Dir Waves Ship Positions

Sheng Jia 1

Last reported at 2014-Jul-18 15:07 UTC. Time now 2014-Jul-24 15:23 UTC.
Position N 38°25' E 121°25'.

Length 72 m; draft 4.2 m.

Type: Cargo ship. MMSI: 515744000.

Date/timePositionNaut miles runAvg speedWind from/ knotsBaromVisibWave heightAir tempDewpointWater temp
2014-Jul-18 15:07N 38°25' E 121°25'51 9.1
2014-Jul-18 09:28N 37°58' E 122°21'18 8.9
2014-Jul-18 07:25N 37°44' E 122°36'409 9.8
2014-Jul-16 13:32N 30°56' E 122°32'8 7.9
2014-Jul-16 12:33N 30°51' E 122°25'9 8.6
2014-Jul-16 11:33N 30°46' E 122°18'8 7.8
2014-Jul-16 10:33N 30°38' E 122°15'9 8.3
2014-Jul-16 09:32N 30°31' E 122°09'1111.1
2014-Jul-16 08:33N 30°25' E 121°58'13 9.0
2014-Jul-16 07:07N 30°15' E 121°49'1111.2
2014-Jul-16 06:09N 30°05' E 121°48'5 9.0
2014-Jul-16 05:33N 29°59' E 121°48'2 0.1
2014-Jul-15 05:32N 29°59' E 121°46'2 1.3
2014-Jul-15 04:15N 30°01' E 121°47'0 0.0
2014-Jul-15 03:27N 30°01' E 121°47'0 0.0
2014-Jul-15 02:21N 30°01' E 121°47'0 0.1
2014-Jul-15 01:15N 30°01' E 121°47'0 0.1
2014-Jul-15 00:18N 30°01' E 121°47'0 0.0
2014-Jul-14 22:24N 30°01' E 121°47'0 0.0
2014-Jul-14 21:30N 30°01' E 121°47'0 0.1
2014-Jul-14 20:30N 30°01' E 121°47'0 0.0
2014-Jul-14 19:24N 30°01' E 121°47'0 0.1
2014-Jul-14 18:24N 30°01' E 121°47'0 0.0
2014-Jul-14 17:30N 30°01' E 121°47'0 0.0
2014-Jul-14 16:24N 30°01' E 121°47'0 0.0
2014-Jul-14 15:30N 30°01' E 121°47'0 0.1
2014-Jul-14 14:24N 30°01' E 121°47'0 0.0
2014-Jul-14 13:30N 30°01' E 121°47'0 0.1
2014-Jul-14 12:30N 30°01' E 121°47'0 0.1
2014-Jul-14 11:30N 30°01' E 121°47'0 0.0
2014-Jul-14 10:18N 30°01' E 121°47'0 0.0
2014-Jul-14 09:12N 30°01' E 121°47'0 0.0
2014-Jul-14 08:30N 30°01' E 121°47'0 0.1
2014-Jul-14 07:30N 30°01' E 121°47'0 0.0
2014-Jul-14 06:30N 30°01' E 121°47'0 0.1
2014-Jul-14 05:30N 30°01' E 121°47'0 0.0
2014-Jul-14 01:30N 30°01' E 121°47'0 0.0
2014-Jul-14 00:24N 30°01' E 121°47'0 0.1
2014-Jul-13 23:30N 30°01' E 121°47'0 0.0
2014-Jul-13 19:18N 30°01' E 121°47'0 0.1
2014-Jul-13 17:30N 30°01' E 121°47'2 2.4
2014-Jul-13 16:31N 30°03' E 121°48'7 5.6
2014-Jul-13 15:12N 30°10' E 121°47'4 5.5
2014-Jul-13 14:33N 30°14' E 121°47'9 6.8
2014-Jul-13 13:15N 30°22' E 121°50'8 9.9
2014-Jul-13 12:25N 30°27' E 121°58'910.6
2014-Jul-13 11:33N 30°31' E 122°07'8 8.4
2014-Jul-13 10:33N 30°33' E 122°17'7 6.7
2014-Jul-13 09:33N 30°32' E 122°24'6 5.8
2014-Jul-13 08:33N 30°33' E 122°31'8 7.7
2014-Jul-13 07:33N 30°36' E 122°39'8 7.9
2014-Jul-13 06:33N 30°38' E 122°48'9 7.7
2014-Jul-13 05:20N 30°44' E 122°56'  
Track history (hours):
 
Tides and Currents Weather Stations Pressure Air Temp Water Temp Dewpoint Dewpoint Depression Visibility Wind Speed Wind Dir Waves Ship Positions

Sheng Jia 1

Last reported at 2014-Jul-18 15:07 UTC. Time now 2014-Jul-24 15:23 UTC.
Position N 38°25' E 121°25'.

Length 72 m; draft 4.2 m.

Type: Cargo ship. MMSI: 515744000.

Date/timePositionNaut miles runAvg speedWind from/ knotsBaromVisibWave heightAir tempDewpointWater temp
2014-Jul-18 15:07N 38°25' E 121°25'51 9.1
2014-Jul-18 09:28N 37°58' E 122°21'18 8.9
2014-Jul-18 07:25N 37°44' E 122°36'409 9.8
2014-Jul-16 13:32N 30°56' E 122°32'8 7.9
2014-Jul-16 12:33N 30°51' E 122°25'9 8.6
2014-Jul-16 11:33N 30°46' E 122°18'8 7.8
2014-Jul-16 10:33N 30°38' E 122°15'9 8.3
2014-Jul-16 09:32N 30°31' E 122°09'1111.1
2014-Jul-16 08:33N 30°25' E 121°58'13 9.0
2014-Jul-16 07:07N 30°15' E 121°49'1111.2
2014-Jul-16 06:09N 30°05' E 121°48'5 9.0
2014-Jul-16 05:33N 29°59' E 121°48'2 0.1
2014-Jul-15 05:32N 29°59' E 121°46'2 1.3
2014-Jul-15 04:15N 30°01' E 121°47'0 0.0
2014-Jul-15 03:27N 30°01' E 121°47'0 0.0
2014-Jul-15 02:21N 30°01' E 121°47'0 0.1
2014-Jul-15 01:15N 30°01' E 121°47'0 0.1
2014-Jul-15 00:18N 30°01' E 121°47'0 0.0
2014-Jul-14 22:24N 30°01' E 121°47'0 0.0
2014-Jul-14 21:30N 30°01' E 121°47'0 0.1
2014-Jul-14 20:30N 30°01' E 121°47'0 0.0
2014-Jul-14 19:24N 30°01' E 121°47'0 0.1
2014-Jul-14 18:24N 30°01' E 121°47'0 0.0
2014-Jul-14 17:30N 30°01' E 121°47'0 0.0
2014-Jul-14 16:24N 30°01' E 121°47'0 0.0
2014-Jul-14 15:30N 30°01' E 121°47'0 0.1
2014-Jul-14 14:24N 30°01' E 121°47'0 0.0
2014-Jul-14 13:30N 30°01' E 121°47'0 0.1
2014-Jul-14 12:30N 30°01' E 121°47'0 0.1
2014-Jul-14 11:30N 30°01' E 121°47'0 0.0
2014-Jul-14 10:18N 30°01' E 121°47'0 0.0
2014-Jul-14 09:12N 30°01' E 121°47'0 0.0
2014-Jul-14 08:30N 30°01' E 121°47'0 0.1
2014-Jul-14 07:30N 30°01' E 121°47'0 0.0
2014-Jul-14 06:30N 30°01' E 121°47'0 0.1
2014-Jul-14 05:30N 30°01' E 121°47'0 0.0
2014-Jul-14 01:30N 30°01' E 121°47'0 0.0
2014-Jul-14 00:24N 30°01' E 121°47'0 0.1
2014-Jul-13 23:30N 30°01' E 121°47'0 0.0
2014-Jul-13 19:18N 30°01' E 121°47'0 0.1
2014-Jul-13 17:30N 30°01' E 121°47'2 2.4
2014-Jul-13 16:31N 30°03' E 121°48'7 5.6
2014-Jul-13 15:12N 30°10' E 121°47'4 5.5
2014-Jul-13 14:33N 30°14' E 121°47'9 6.8
2014-Jul-13 13:15N 30°22' E 121°50'8 9.9
2014-Jul-13 12:25N 30°27' E 121°58'910.6
2014-Jul-13 11:33N 30°31' E 122°07'8 8.4
2014-Jul-13 10:33N 30°33' E 122°17'7 6.7
2014-Jul-13 09:33N 30°32' E 122°24'6 5.8
2014-Jul-13 08:33N 30°33' E 122°31'8 7.7
2014-Jul-13 07:33N 30°36' E 122°39'8 7.9
2014-Jul-13 06:33N 30°38' E 122°48'9 7.7
2014-Jul-13 05:20N 30°44' E 122°56'  

Dump ship's entire track history